sensor_id;sensor_type;location;lat;lon;timestamp;temperature;humidity
43143;DHT22;28750;59.842;17.584;2024-02-04T00:02:15;3.00;36.60
43143;DHT22;28750;59.842;17.584;2024-02-04T00:04:42;3.00;24.00
43143;DHT22;28750;59.842;17.584;2024-02-04T00:07:09;3.00;1.00
43143;DHT22;28750;59.842;17.584;2024-02-04T00:09:36;3.00;34.60
43143;DHT22;28750;59.842;17.584;2024-02-04T00:12:04;3.10;1.00
43143;DHT22;28750;59.842;17.584;2024-02-04T00:14:32;3.00;10.90
43143;DHT22;28750;59.842;17.584;2024-02-04T00:16:59;3.00;1.00
43143;DHT22;28750;59.842;17.584;2024-02-04T00:19:27;2.90;42.80
43143;DHT22;28750;59.842;17.584;2024-02-04T00:21:54;2.90;38.80
43143;DHT22;28750;59.842;17.584;2024-02-04T00:24:21;2.90;83.30
43143;DHT22;28750;59.842;17.584;2024-02-04T00:26:48;3.00;31.20
43143;DHT22;28750;59.842;17.584;2024-02-04T00:29:16;3.00;20.40
43143;DHT22;28750;59.842;17.584;2024-02-04T00:31:43;2.90;47.10
43143;DHT22;28750;59.842;17.584;2024-02-04T00:34:10;3.00;16.10
43143;DHT22;28750;59.842;17.584;2024-02-04T00:36:37;3.00;3.20
43143;DHT22;28750;59.842;17.584;2024-02-04T00:39:04;3.00;39.20
43143;DHT22;28750;59.842;17.584;2024-02-04T00:41:33;3.00;26.80
43143;DHT22;28750;59.842;17.584;2024-02-04T00:44:01;2.90;93.50
43143;DHT22;28750;59.842;17.584;2024-02-04T00:46:28;3.00;72.10
43143;DHT22;28750;59.842;17.584;2024-02-04T00:48:55;2.90;99.90
43143;DHT22;28750;59.842;17.584;2024-02-04T00:51:23;2.90;85.30
43143;DHT22;28750;59.842;17.584;2024-02-04T00:53:50;2.90;68.70
43143;DHT22;28750;59.842;17.584;2024-02-04T00:56:18;2.80;88.50
43143;DHT22;28750;59.842;17.584;2024-02-04T00:58:45;2.90;54.00
43143;DHT22;28750;59.842;17.584;2024-02-04T01:01:13;2.90;74.10
43143;DHT22;28750;59.842;17.584;2024-02-04T01:03:40;2.90;87.50
43143;DHT22;28750;59.842;17.584;2024-02-04T01:06:07;3.00;22.60
43143;DHT22;28750;59.842;17.584;2024-02-04T01:08:34;2.90;29.10
43143;DHT22;28750;59.842;17.584;2024-02-04T01:11:04;2.90;3.30
43143;DHT22;28750;59.842;17.584;2024-02-04T01:13:31;2.80;36.40
43143;DHT22;28750;59.842;17.584;2024-02-04T01:15:59;2.90;23.90
43143;DHT22;28750;59.842;17.584;2024-02-04T01:18:26;2.80;69.70
43143;DHT22;28750;59.842;17.584;2024-02-04T01:20:53;2.80;9.40
43143;DHT22;28750;59.842;17.584;2024-02-04T01:23:20;2.90;1.00
43143;DHT22;28750;59.842;17.584;2024-02-04T01:25:47;2.80;1.00
43143;DHT22;28750;59.842;17.584;2024-02-04T01:28:14;2.70;1.00
43143;DHT22;28750;59.842;17.584;2024-02-04T01:30:42;2.70;1.00
43143;DHT22;28750;59.842;17.584;2024-02-04T01:33:09;2.70;1.00
43143;DHT22;28750;59.842;17.584;2024-02-04T01:35:36;2.70;1.00
43143;DHT22;28750;59.842;17.584;2024-02-04T01:38:03;2.70;1.00
43143;DHT22;28750;59.842;17.584;2024-02-04T01:40:30;2.80;1.00
43143;DHT22;28750;59.842;17.584;2024-02-04T01:42:58;2.80;1.00
43143;DHT22;28750;59.842;17.584;2024-02-04T01:45:25;2.80;1.00
43143;DHT22;28750;59.842;17.584;2024-02-04T01:47:53;2.70;99.90
43143;DHT22;28750;59.842;17.584;2024-02-04T01:50:21;2.70;99.90
43143;DHT22;28750;59.842;17.584;2024-02-04T01:52:49;2.70;99.90
43143;DHT22;28750;59.842;17.584;2024-02-04T01:55:17;2.60;99.90
43143;DHT22;28750;59.842;17.584;2024-02-04T01:57:48;2.60;99.90
43143;DHT22;28750;59.842;17.584;2024-02-04T02:00:15;2.70;99.90
43143;DHT22;28750;59.842;17.584;2024-02-04T02:02:46;2.60;99.90
43143;DHT22;28750;59.842;17.584;2024-02-04T02:05:13;2.70;99.90
43143;DHT22;28750;59.842;17.584;2024-02-04T02:07:41;2.80;99.90
43143;DHT22;28750;59.842;17.584;2024-02-04T02:10:10;2.60;99.90
43143;DHT22;28750;59.842;17.584;2024-02-04T02:12:49;2.60;99.90
43143;DHT22;28750;59.842;17.584;2024-02-04T02:15:30;2.60;99.90
43143;DHT22;28750;59.842;17.584;2024-02-04T02:18:10;2.50;99.90
43143;DHT22;28750;59.842;17.584;2024-02-04T02:23:35;2.50;99.90
43143;DHT22;28750;59.842;17.584;2024-02-04T02:26:04;2.50;99.90
43143;DHT22;28750;59.842;17.584;2024-02-04T02:28:32;2.60;99.90
43143;DHT22;28750;59.842;17.584;2024-02-04T02:31:00;2.50;99.90
43143;DHT22;28750;59.842;17.584;2024-02-04T02:33:27;2.60;99.90
43143;DHT22;28750;59.842;17.584;2024-02-04T02:35:57;2.60;99.90
43143;DHT22;28750;59.842;17.584;2024-02-04T02:38:37;2.60;99.90
43143;DHT22;28750;59.842;17.584;2024-02-04T02:41:08;2.60;99.90
43143;DHT22;28750;59.842;17.584;2024-02-04T02:43:39;2.60;99.90
43143;DHT22;28750;59.842;17.584;2024-02-04T02:46:07;2.60;99.90
43143;DHT22;28750;59.842;17.584;2024-02-04T02:48:35;2.50;99.90
43143;DHT22;28750;59.842;17.584;2024-02-04T02:51:03;2.40;99.90
43143;DHT22;28750;59.842;17.584;2024-02-04T02:53:31;2.50;99.90
43143;DHT22;28750;59.842;17.584;2024-02-04T02:55:58;2.50;99.90
43143;DHT22;28750;59.842;17.584;2024-02-04T02:58:25;2.50;99.90
43143;DHT22;28750;59.842;17.584;2024-02-04T03:00:53;2.50;99.90
43143;DHT22;28750;59.842;17.584;2024-02-04T03:03:20;2.50;99.90
43143;DHT22;28750;59.842;17.584;2024-02-04T03:05:47;2.50;99.90
43143;DHT22;28750;59.842;17.584;2024-02-04T03:08:14;2.40;99.90
43143;DHT22;28750;59.842;17.584;2024-02-04T03:10:42;2.40;99.00
43143;DHT22;28750;59.842;17.584;2024-02-04T03:13:09;2.40;86.00
43143;DHT22;28750;59.842;17.584;2024-02-04T03:15:36;2.40;71.80
43143;DHT22;28750;59.842;17.584;2024-02-04T03:18:06;2.40;76.50
43143;DHT22;28750;59.842;17.584;2024-02-04T03:20:33;2.30;85.00
43143;DHT22;28750;59.842;17.584;2024-02-04T03:23:00;2.30;63.60
43143;DHT22;28750;59.842;17.584;2024-02-04T03:25:28;2.30;27.30
43143;DHT22;28750;59.842;17.584;2024-02-04T03:27:55;2.40;15.00
43143;DHT22;28750;59.842;17.584;2024-02-04T03:30:22;2.30;9.10
43143;DHT22;28750;59.842;17.584;2024-02-04T03:32:49;2.30;34.60
43143;DHT22;28750;59.842;17.584;2024-02-04T03:35:17;2.30;24.40
43143;DHT22;28750;59.842;17.584;2024-02-04T03:37:44;2.40;2.40
43143;DHT22;28750;59.842;17.584;2024-02-04T03:40:11;2.30;19.60
43143;DHT22;28750;59.842;17.584;2024-02-04T03:42:38;2.30;25.20
43143;DHT22;28750;59.842;17.584;2024-02-04T03:45:06;2.30;19.20
43143;DHT22;28750;59.842;17.584;2024-02-04T03:47:34;2.30;33.40
43143;DHT22;28750;59.842;17.584;2024-02-04T03:50:01;2.20;35.00
43143;DHT22;28750;59.842;17.584;2024-02-04T03:52:29;2.20;36.40
43143;DHT22;28750;59.842;17.584;2024-02-04T03:54:56;2.10;37.10
43143;DHT22;28750;59.842;17.584;2024-02-04T03:57:25;2.10;47.20
43143;DHT22;28750;59.842;17.584;2024-02-04T03:59:52;2.10;74.40
43143;DHT22;28750;59.842;17.584;2024-02-04T04:02:19;2.10;47.20
43143;DHT22;28750;59.842;17.584;2024-02-04T04:04:46;2.10;68.20
43143;DHT22;28750;59.842;17.584;2024-02-04T04:07:14;2.10;90.30
43143;DHT22;28750;59.842;17.584;2024-02-04T04:09:41;2.00;81.50
43143;DHT22;28750;59.842;17.584;2024-02-04T04:12:08;2.10;58.10
43143;DHT22;28750;59.842;17.584;2024-02-04T04:14:35;2.10;81.80
43143;DHT22;28750;59.842;17.584;2024-02-04T04:17:02;2.10;81.80
43143;DHT22;28750;59.842;17.584;2024-02-04T04:19:29;2.00;80.00
43143;DHT22;28750;59.842;17.584;2024-02-04T04:21:58;2.00;71.40
43143;DHT22;28750;59.842;17.584;2024-02-04T04:24:27;2.00;98.10
43143;DHT22;28750;59.842;17.584;2024-02-04T04:26:54;2.00;99.90
43143;DHT22;28750;59.842;17.584;2024-02-04T04:29:21;1.90;98.80
43143;DHT22;28750;59.842;17.584;2024-02-04T04:31:48;1.90;99.90
43143;DHT22;28750;59.842;17.584;2024-02-04T04:34:15;1.90;99.90
43143;DHT22;28750;59.842;17.584;2024-02-04T04:36:44;2.00;91.40
43143;DHT22;28750;59.842;17.584;2024-02-04T04:39:11;1.90;76.20
43143;DHT22;28750;59.842;17.584;2024-02-04T04:41:40;1.90;76.20
43143;DHT22;28750;59.842;17.584;2024-02-04T04:44:07;1.90;96.90
43143;DHT22;28750;59.842;17.584;2024-02-04T04:46:38;1.90;79.60
43143;DHT22;28750;59.842;17.584;2024-02-04T04:49:05;2.00;63.90
43143;DHT22;28750;59.842;17.584;2024-02-04T04:51:33;2.00;92.70
43143;DHT22;28750;59.842;17.584;2024-02-04T04:54:00;1.80;51.10
43143;DHT22;28750;59.842;17.584;2024-02-04T04:56:27;1.80;53.00
43143;DHT22;28750;59.842;17.584;2024-02-04T04:58:54;1.90;64.70
43143;DHT22;28750;59.842;17.584;2024-02-04T05:01:21;1.90;62.20
43143;DHT22;28750;59.842;17.584;2024-02-04T05:03:48;1.90;52.40
43143;DHT22;28750;59.842;17.584;2024-02-04T05:06:15;1.80;28.90
43143;DHT22;28750;59.842;17.584;2024-02-04T05:08:42;1.80;72.40
43143;DHT22;28750;59.842;17.584;2024-02-04T05:11:09;1.70;77.30
43143;DHT22;28750;59.842;17.584;2024-02-04T05:13:39;1.80;73.10
43143;DHT22;28750;59.842;17.584;2024-02-04T05:16:06;1.70;77.20
43143;DHT22;28750;59.842;17.584;2024-02-04T05:18:33;1.80;66.90
43143;DHT22;28750;59.842;17.584;2024-02-04T05:21:02;1.70;50.30
43143;DHT22;28750;59.842;17.584;2024-02-04T05:23:29;1.80;40.50
43143;DHT22;28750;59.842;17.584;2024-02-04T05:25:56;1.70;61.10
43143;DHT22;28750;59.842;17.584;2024-02-04T05:28:23;1.70;76.80
43143;DHT22;28750;59.842;17.584;2024-02-04T05:30:51;1.60;44.90
43143;DHT22;28750;59.842;17.584;2024-02-04T05:33:18;1.60;60.00
43143;DHT22;28750;59.842;17.584;2024-02-04T05:35:45;1.70;62.80
43143;DHT22;28750;59.842;17.584;2024-02-04T05:38:12;1.60;56.20
43143;DHT22;28750;59.842;17.584;2024-02-04T05:40:39;1.60;55.50
43143;DHT22;28750;59.842;17.584;2024-02-04T05:43:06;1.60;34.20
43143;DHT22;28750;59.842;17.584;2024-02-04T05:45:37;1.50;32.60
43143;DHT22;28750;59.842;17.584;2024-02-04T05:48:09;1.50;62.60
43143;DHT22;28750;59.842;17.584;2024-02-04T05:50:37;1.60;34.70
43143;DHT22;28750;59.842;17.584;2024-02-04T05:53:04;1.60;31.10
43143;DHT22;28750;59.842;17.584;2024-02-04T05:55:31;1.50;60.10
43143;DHT22;28750;59.842;17.584;2024-02-04T05:57:58;1.40;94.50
43143;DHT22;28750;59.842;17.584;2024-02-04T06:00:26;1.20;99.90
43143;DHT22;28750;59.842;17.584;2024-02-04T06:02:53;1.40;99.20
43143;DHT22;28750;59.842;17.584;2024-02-04T06:05:20;1.40;59.00
43143;DHT22;28750;59.842;17.584;2024-02-04T06:07:48;1.40;81.00
43143;DHT22;28750;59.842;17.584;2024-02-04T06:10:15;1.40;60.80
43143;DHT22;28750;59.842;17.584;2024-02-04T06:12:44;1.40;97.00
43143;DHT22;28750;59.842;17.584;2024-02-04T06:15:17;1.40;92.60
43143;DHT22;28750;59.842;17.584;2024-02-04T06:17:46;1.40;99.90
43143;DHT22;28750;59.842;17.584;2024-02-04T06:20:13;1.30;99.90
43143;DHT22;28750;59.842;17.584;2024-02-04T06:22:40;1.40;77.30
43143;DHT22;28750;59.842;17.584;2024-02-04T06:25:08;1.40;70.90
43143;DHT22;28750;59.842;17.584;2024-02-04T06:27:35;1.40;99.90
43143;DHT22;28750;59.842;17.584;2024-02-04T06:30:02;1.40;99.90
43143;DHT22;28750;59.842;17.584;2024-02-04T06:32:29;1.30;99.90
43143;DHT22;28750;59.842;17.584;2024-02-04T06:34:57;1.40;99.90
43143;DHT22;28750;59.842;17.584;2024-02-04T06:37:24;1.30;99.90
43143;DHT22;28750;59.842;17.584;2024-02-04T06:39:52;1.20;60.50
43143;DHT22;28750;59.842;17.584;2024-02-04T06:42:19;1.30;99.90
43143;DHT22;28750;59.842;17.584;2024-02-04T06:44:46;1.30;99.90
43143;DHT22;28750;59.842;17.584;2024-02-04T06:47:14;1.20;99.90
43143;DHT22;28750;59.842;17.584;2024-02-04T06:49:44;1.40;99.90
43143;DHT22;28750;59.842;17.584;2024-02-04T06:52:12;1.30;99.90
43143;DHT22;28750;59.842;17.584;2024-02-04T06:54:39;1.20;32.30
43143;DHT22;28750;59.842;17.584;2024-02-04T06:57:06;1.20;99.90
43143;DHT22;28750;59.842;17.584;2024-02-04T06:59:33;1.20;37.40
43143;DHT22;28750;59.842;17.584;2024-02-04T07:02:00;1.30;63.40
43143;DHT22;28750;59.842;17.584;2024-02-04T07:04:27;1.20;56.80
43143;DHT22;28750;59.842;17.584;2024-02-04T07:06:54;1.30;86.70
43143;DHT22;28750;59.842;17.584;2024-02-04T07:09:21;1.20;59.50
43143;DHT22;28750;59.842;17.584;2024-02-04T07:11:49;1.20;65.30
43143;DHT22;28750;59.842;17.584;2024-02-04T07:14:16;1.20;99.90
43143;DHT22;28750;59.842;17.584;2024-02-04T07:16:43;1.30;99.90
43143;DHT22;28750;59.842;17.584;2024-02-04T07:19:10;1.30;70.50
43143;DHT22;28750;59.842;17.584;2024-02-04T07:21:37;1.20;99.90
43143;DHT22;28750;59.842;17.584;2024-02-04T07:24:04;1.10;99.00
43143;DHT22;28750;59.842;17.584;2024-02-04T07:26:32;1.20;99.90
43143;DHT22;28750;59.842;17.584;2024-02-04T07:28:59;1.10;99.90
43143;DHT22;28750;59.842;17.584;2024-02-04T07:31:26;1.10;99.90
43143;DHT22;28750;59.842;17.584;2024-02-04T07:33:53;1.10;99.90
43143;DHT22;28750;59.842;17.584;2024-02-04T07:36:20;1.20;99.50
43143;DHT22;28750;59.842;17.584;2024-02-04T07:38:47;1.10;99.90
43143;DHT22;28750;59.842;17.584;2024-02-04T07:41:14;1.20;93.80
43143;DHT22;28750;59.842;17.584;2024-02-04T07:43:42;1.20;90.10
43143;DHT22;28750;59.842;17.584;2024-02-04T07:46:09;1.20;97.40
43143;DHT22;28750;59.842;17.584;2024-02-04T07:48:36;1.20;99.90
43143;DHT22;28750;59.842;17.584;2024-02-04T07:51:03;1.20;71.10
43143;DHT22;28750;59.842;17.584;2024-02-04T07:53:30;1.20;73.40
43143;DHT22;28750;59.842;17.584;2024-02-04T07:55:58;1.10;92.00
43143;DHT22;28750;59.842;17.584;2024-02-04T07:58:25;1.10;87.80
43143;DHT22;28750;59.842;17.584;2024-02-04T08:00:53;1.10;99.90
43143;DHT22;28750;59.842;17.584;2024-02-04T08:03:20;1.10;99.90
43143;DHT22;28750;59.842;17.584;2024-02-04T08:05:47;1.10;99.90
43143;DHT22;28750;59.842;17.584;2024-02-04T08:08:14;1.10;99.90
43143;DHT22;28750;59.842;17.584;2024-02-04T08:10:42;1.10;99.90
43143;DHT22;28750;59.842;17.584;2024-02-04T08:13:09;1.20;99.90
43143;DHT22;28750;59.842;17.584;2024-02-04T08:15:36;1.20;99.90
43143;DHT22;28750;59.842;17.584;2024-02-04T08:18:03;1.20;99.90
43143;DHT22;28750;59.842;17.584;2024-02-04T08:20:29;1.10;99.90
43143;DHT22;28750;59.842;17.584;2024-02-04T08:22:56;1.20;99.90
43143;DHT22;28750;59.842;17.584;2024-02-04T08:25:24;1.10;99.90
43143;DHT22;28750;59.842;17.584;2024-02-04T08:27:51;1.10;99.90
43143;DHT22;28750;59.842;17.584;2024-02-04T08:30:18;1.20;99.90
43143;DHT22;28750;59.842;17.584;2024-02-04T08:32:46;1.20;99.90
43143;DHT22;28750;59.842;17.584;2024-02-04T08:35:13;1.20;99.90
43143;DHT22;28750;59.842;17.584;2024-02-04T08:37:40;1.10;99.90
43143;DHT22;28750;59.842;17.584;2024-02-04T08:40:07;1.20;99.90
43143;DHT22;28750;59.842;17.584;2024-02-04T08:42:36;1.20;99.90
43143;DHT22;28750;59.842;17.584;2024-02-04T08:45:03;1.20;99.90
43143;DHT22;28750;59.842;17.584;2024-02-04T08:47:30;1.20;99.90
43143;DHT22;28750;59.842;17.584;2024-02-04T08:49:57;1.20;99.90
43143;DHT22;28750;59.842;17.584;2024-02-04T08:52:24;1.10;99.90
43143;DHT22;28750;59.842;17.584;2024-02-04T08:54:51;1.20;99.90
43143;DHT22;28750;59.842;17.584;2024-02-04T08:57:18;1.20;99.90
43143;DHT22;28750;59.842;17.584;2024-02-04T08:59:45;1.20;99.90
43143;DHT22;28750;59.842;17.584;2024-02-04T09:02:13;1.10;99.90
43143;DHT22;28750;59.842;17.584;2024-02-04T09:04:40;1.20;99.90
43143;DHT22;28750;59.842;17.584;2024-02-04T09:07:07;1.00;99.90
43143;DHT22;28750;59.842;17.584;2024-02-04T09:09:34;1.10;99.90
43143;DHT22;28750;59.842;17.584;2024-02-04T09:12:01;1.20;99.90
43143;DHT22;28750;59.842;17.584;2024-02-04T09:14:28;1.20;99.90
43143;DHT22;28750;59.842;17.584;2024-02-04T09:16:55;1.10;99.90
43143;DHT22;28750;59.842;17.584;2024-02-04T09:19:24;1.10;99.90
43143;DHT22;28750;59.842;17.584;2024-02-04T09:21:51;1.20;99.90
43143;DHT22;28750;59.842;17.584;2024-02-04T09:24:18;1.20;99.90
43143;DHT22;28750;59.842;17.584;2024-02-04T09:26:45;1.20;99.90
43143;DHT22;28750;59.842;17.584;2024-02-04T09:29:12;1.20;99.90
43143;DHT22;28750;59.842;17.584;2024-02-04T09:31:39;1.20;99.90
43143;DHT22;28750;59.842;17.584;2024-02-04T09:34:06;1.10;99.90
43143;DHT22;28750;59.842;17.584;2024-02-04T09:36:34;1.20;99.90
43143;DHT22;28750;59.842;17.584;2024-02-04T09:39:01;1.30;99.90
43143;DHT22;28750;59.842;17.584;2024-02-04T09:41:29;1.30;99.90
43143;DHT22;28750;59.842;17.584;2024-02-04T09:43:56;1.30;99.90
43143;DHT22;28750;59.842;17.584;2024-02-04T09:46:25;1.30;99.90
43143;DHT22;28750;59.842;17.584;2024-02-04T09:48:53;1.40;99.90
43143;DHT22;28750;59.842;17.584;2024-02-04T09:51:22;1.30;99.90
43143;DHT22;28750;59.842;17.584;2024-02-04T09:53:53;1.30;99.90
43143;DHT22;28750;59.842;17.584;2024-02-04T09:56:22;1.50;99.90
43143;DHT22;28750;59.842;17.584;2024-02-04T09:58:52;1.50;99.90
43143;DHT22;28750;59.842;17.584;2024-02-04T10:01:19;1.60;99.90
43143;DHT22;28750;59.842;17.584;2024-02-04T10:03:48;1.70;99.90
43143;DHT22;28750;59.842;17.584;2024-02-04T10:06:15;1.90;99.90
43143;DHT22;28750;59.842;17.584;2024-02-04T10:08:42;2.10;99.90
43143;DHT22;28750;59.842;17.584;2024-02-04T10:11:11;2.00;99.90
43143;DHT22;28750;59.842;17.584;2024-02-04T10:13:51;1.90;99.90
43143;DHT22;28750;59.842;17.584;2024-02-04T10:16:18;2.00;99.90
43143;DHT22;28750;59.842;17.584;2024-02-04T10:18:46;2.20;99.90
43143;DHT22;28750;59.842;17.584;2024-02-04T10:21:21;2.30;99.90
43143;DHT22;28750;59.842;17.584;2024-02-04T10:23:50;2.20;99.90
43143;DHT22;28750;59.842;17.584;2024-02-04T10:26:17;2.10;99.90
43143;DHT22;28750;59.842;17.584;2024-02-04T10:28:46;2.00;99.90
43143;DHT22;28750;59.842;17.584;2024-02-04T10:31:13;2.10;99.90
43143;DHT22;28750;59.842;17.584;2024-02-04T10:33:40;2.10;99.90
43143;DHT22;28750;59.842;17.584;2024-02-04T10:36:07;2.10;99.90
43143;DHT22;28750;59.842;17.584;2024-02-04T10:38:35;2.30;99.90
43143;DHT22;28750;59.842;17.584;2024-02-04T10:41:02;2.50;99.90
43143;DHT22;28750;59.842;17.584;2024-02-04T10:43:33;2.50;99.90
43143;DHT22;28750;59.842;17.584;2024-02-04T10:46:19;2.60;99.90
43143;DHT22;28750;59.842;17.584;2024-02-04T10:48:57;2.60;99.90
43143;DHT22;28750;59.842;17.584;2024-02-04T10:51:26;2.90;99.90
43143;DHT22;28750;59.842;17.584;2024-02-04T10:53:55;3.00;99.90
43143;DHT22;28750;59.842;17.584;2024-02-04T10:56:25;3.10;99.90
43143;DHT22;28750;59.842;17.584;2024-02-04T10:58:56;3.20;99.90
43143;DHT22;28750;59.842;17.584;2024-02-04T11:01:24;3.20;99.90
43143;DHT22;28750;59.842;17.584;2024-02-04T11:03:53;3.20;99.90
43143;DHT22;28750;59.842;17.584;2024-02-04T11:06:22;3.10;99.90
43143;DHT22;28750;59.842;17.584;2024-02-04T11:08:52;3.10;99.90
43143;DHT22;28750;59.842;17.584;2024-02-04T11:11:20;3.10;99.90
43143;DHT22;28750;59.842;17.584;2024-02-04T11:13:51;3.20;99.90
43143;DHT22;28750;59.842;17.584;2024-02-04T11:19:08;3.00;99.90
43143;DHT22;28750;59.842;17.584;2024-02-04T11:27:28;2.90;99.90
43143;DHT22;28750;59.842;17.584;2024-02-04T11:29:57;2.80;99.90
43143;DHT22;28750;59.842;17.584;2024-02-04T11:32:27;2.70;99.90
43143;DHT22;28750;59.842;17.584;2024-02-04T11:34:57;2.50;99.90
43143;DHT22;28750;59.842;17.584;2024-02-04T11:37:28;2.60;99.90
43143;DHT22;28750;59.842;17.584;2024-02-04T11:39:58;2.70;99.90
43143;DHT22;28750;59.842;17.584;2024-02-04T11:42:31;2.70;99.90
43143;DHT22;28750;59.842;17.584;2024-02-04T11:45:10;2.80;99.90
43143;DHT22;28750;59.842;17.584;2024-02-04T11:47:40;2.90;99.90
43143;DHT22;28750;59.842;17.584;2024-02-04T11:50:08;3.00;99.90
43143;DHT22;28750;59.842;17.584;2024-02-04T11:52:35;3.00;99.90
43143;DHT22;28750;59.842;17.584;2024-02-04T11:55:05;3.00;99.90
43143;DHT22;28750;59.842;17.584;2024-02-04T11:57:33;3.00;99.90
43143;DHT22;28750;59.842;17.584;2024-02-04T12:00:01;3.10;99.90
43143;DHT22;28750;59.842;17.584;2024-02-04T12:02:36;3.00;99.90
43143;DHT22;28750;59.842;17.584;2024-02-04T12:05:05;3.10;99.90
43143;DHT22;28750;59.842;17.584;2024-02-04T12:07:33;3.00;99.90
43143;DHT22;28750;59.842;17.584;2024-02-04T12:10:01;3.00;99.90
43143;DHT22;28750;59.842;17.584;2024-02-04T12:12:31;3.10;99.90
43143;DHT22;28750;59.842;17.584;2024-02-04T12:15:00;3.20;99.90
43143;DHT22;28750;59.842;17.584;2024-02-04T12:17:29;3.20;99.90
43143;DHT22;28750;59.842;17.584;2024-02-04T12:19:58;3.30;99.90
43143;DHT22;28750;59.842;17.584;2024-02-04T12:22:27;3.40;99.90
43143;DHT22;28750;59.842;17.584;2024-02-04T12:24:57;3.50;99.90
43143;DHT22;28750;59.842;17.584;2024-02-04T12:27:27;3.50;99.90
43143;DHT22;28750;59.842;17.584;2024-02-04T12:29:57;3.60;99.90
43143;DHT22;28750;59.842;17.584;2024-02-04T12:32:28;3.80;99.90
43143;DHT22;28750;59.842;17.584;2024-02-04T12:34:58;3.80;99.90
43143;DHT22;28750;59.842;17.584;2024-02-04T12:37:29;3.70;99.90
43143;DHT22;28750;59.842;17.584;2024-02-04T12:40:00;3.60;99.90
43143;DHT22;28750;59.842;17.584;2024-02-04T12:42:30;3.60;99.90
43143;DHT22;28750;59.842;17.584;2024-02-04T12:45:00;3.50;99.90
43143;DHT22;28750;59.842;17.584;2024-02-04T12:47:29;3.40;99.90
43143;DHT22;28750;59.842;17.584;2024-02-04T12:49:59;3.40;99.90
43143;DHT22;28750;59.842;17.584;2024-02-04T12:52:30;3.40;99.90
43143;DHT22;28750;59.842;17.584;2024-02-04T12:55:05;3.40;99.90
43143;DHT22;28750;59.842;17.584;2024-02-04T12:57:35;3.40;99.90
43143;DHT22;28750;59.842;17.584;2024-02-04T13:00:06;3.30;99.90
43143;DHT22;28750;59.842;17.584;2024-02-04T13:02:37;3.40;99.90
43143;DHT22;28750;59.842;17.584;2024-02-04T13:05:08;3.30;99.90
43143;DHT22;28750;59.842;17.584;2024-02-04T13:07:38;3.30;99.90
43143;DHT22;28750;59.842;17.584;2024-02-04T13:10:07;3.30;99.90
43143;DHT22;28750;59.842;17.584;2024-02-04T13:12:38;3.30;99.90
43143;DHT22;28750;59.842;17.584;2024-02-04T13:15:09;3.40;99.90
43143;DHT22;28750;59.842;17.584;2024-02-04T13:17:38;3.30;99.90
43143;DHT22;28750;59.842;17.584;2024-02-04T13:20:06;3.20;99.90
43143;DHT22;28750;59.842;17.584;2024-02-04T13:22:35;3.20;99.90
43143;DHT22;28750;59.842;17.584;2024-02-04T13:25:02;3.20;99.90
43143;DHT22;28750;59.842;17.584;2024-02-04T13:27:29;3.10;99.90
43143;DHT22;28750;59.842;17.584;2024-02-04T13:29:56;3.00;99.90
43143;DHT22;28750;59.842;17.584;2024-02-04T13:32:24;3.00;99.90
43143;DHT22;28750;59.842;17.584;2024-02-04T13:34:52;3.00;99.90
43143;DHT22;28750;59.842;17.584;2024-02-04T13:37:20;3.00;99.90
43143;DHT22;28750;59.842;17.584;2024-02-04T13:39:48;3.00;99.90
43143;DHT22;28750;59.842;17.584;2024-02-04T13:42:16;3.00;99.90
43143;DHT22;28750;59.842;17.584;2024-02-04T13:44:44;2.90;99.90
43143;DHT22;28750;59.842;17.584;2024-02-04T13:47:11;2.90;99.90
43143;DHT22;28750;59.842;17.584;2024-02-04T13:49:38;3.00;99.90
43143;DHT22;28750;59.842;17.584;2024-02-04T13:52:06;2.90;99.90
43143;DHT22;28750;59.842;17.584;2024-02-04T13:54:35;2.80;99.90
43143;DHT22;28750;59.842;17.584;2024-02-04T13:57:05;2.80;99.90
43143;DHT22;28750;59.842;17.584;2024-02-04T13:59:36;2.90;99.90
43143;DHT22;28750;59.842;17.584;2024-02-04T14:02:05;2.80;99.90
43143;DHT22;28750;59.842;17.584;2024-02-04T14:04:34;2.80;99.90
43143;DHT22;28750;59.842;17.584;2024-02-04T14:07:01;2.70;99.90
43143;DHT22;28750;59.842;17.584;2024-02-04T14:09:29;2.80;99.90
43143;DHT22;28750;59.842;17.584;2024-02-04T14:12:01;2.80;99.90
43143;DHT22;28750;59.842;17.584;2024-02-04T14:14:30;2.90;99.90
43143;DHT22;28750;59.842;17.584;2024-02-04T14:16:58;2.60;99.90
43143;DHT22;28750;59.842;17.584;2024-02-04T14:19:25;2.50;99.90
43143;DHT22;28750;59.842;17.584;2024-02-04T14:21:53;2.50;99.90
43143;DHT22;28750;59.842;17.584;2024-02-04T14:24:21;2.30;1.00
43143;DHT22;28750;59.842;17.584;2024-02-04T14:26:48;2.40;1.00
43143;DHT22;28750;59.842;17.584;2024-02-04T14:29:16;2.30;1.00
43143;DHT22;28750;59.842;17.584;2024-02-04T14:31:44;2.30;1.00
43143;DHT22;28750;59.842;17.584;2024-02-04T14:34:11;2.00;24.20
43143;DHT22;28750;59.842;17.584;2024-02-04T14:36:39;2.00;89.10
43143;DHT22;28750;59.842;17.584;2024-02-04T14:39:08;1.90;90.20
43143;DHT22;28750;59.842;17.584;2024-02-04T14:41:36;1.90;53.50
43143;DHT22;28750;59.842;17.584;2024-02-04T14:44:05;1.90;1.00
43143;DHT22;28750;59.842;17.584;2024-02-04T14:46:38;1.80;1.00
43143;DHT22;28750;59.842;17.584;2024-02-04T14:49:10;1.70;93.50
43143;DHT22;28750;59.842;17.584;2024-02-04T14:51:39;1.80;60.80
43143;DHT22;28750;59.842;17.584;2024-02-04T14:54:07;1.80;1.00
43143;DHT22;28750;59.842;17.584;2024-02-04T14:56:39;1.80;1.00
43143;DHT22;28750;59.842;17.584;2024-02-04T14:59:09;1.80;1.00
43143;DHT22;28750;59.842;17.584;2024-02-04T15:01:38;1.70;1.00
43143;DHT22;28750;59.842;17.584;2024-02-04T15:04:06;1.60;1.00
43143;DHT22;28750;59.842;17.584;2024-02-04T15:06:34;1.60;1.00
43143;DHT22;28750;59.842;17.584;2024-02-04T15:09:02;1.40;1.00
43143;DHT22;28750;59.842;17.584;2024-02-04T15:11:30;1.30;1.00
43143;DHT22;28750;59.842;17.584;2024-02-04T15:13:58;1.30;1.00
43143;DHT22;28750;59.842;17.584;2024-02-04T15:16:25;1.20;1.00
43143;DHT22;28750;59.842;17.584;2024-02-04T15:18:52;1.10;1.00
43143;DHT22;28750;59.842;17.584;2024-02-04T15:21:20;1.00;1.00
43143;DHT22;28750;59.842;17.584;2024-02-04T15:23:50;1.00;31.20
43143;DHT22;28750;59.842;17.584;2024-02-04T15:26:18;0.90;10.80
43143;DHT22;28750;59.842;17.584;2024-02-04T15:28:47;0.70;90.50
43143;DHT22;28750;59.842;17.584;2024-02-04T15:31:15;0.70;99.90
43143;DHT22;28750;59.842;17.584;2024-02-04T15:33:44;0.50;99.90
43143;DHT22;28750;59.842;17.584;2024-02-04T15:36:13;0.40;99.90
43143;DHT22;28750;59.842;17.584;2024-02-04T15:38:40;0.40;99.90
43143;DHT22;28750;59.842;17.584;2024-02-04T15:41:07;0.50;99.90
43143;DHT22;28750;59.842;17.584;2024-02-04T15:43:35;0.50;71.90
43143;DHT22;28750;59.842;17.584;2024-02-04T15:46:07;0.40;99.90
43143;DHT22;28750;59.842;17.584;2024-02-04T15:48:39;0.20;99.90
43143;DHT22;28750;59.842;17.584;2024-02-04T15:51:09;0.20;85.90